MAY 03,2015


METAR SMJP 031600Z 06012KT 9999 SCT035 31/21 Q1014 NOSIG=

METAR SMZO 031600Z 04010KT 9999 BKN035 31/21 Q1014 NOSIG=

METAR SMNI 031600Z NIL=

METAR SMST 031600Z NIL=